createdAt,value
2023-05-09T00:00:06.757Z,0.00
2023-05-09T00:01:07.639Z,0.00
2023-05-09T00:02:08.597Z,0.00
2023-05-09T00:03:09.526Z,0.00
2023-05-09T00:04:10.527Z,0.00
2023-05-09T00:05:11.405Z,0.00
2023-05-09T00:06:11.852Z,0.00
2023-05-09T00:07:12.738Z,0.00
2023-05-09T00:08:13.647Z,0.00
2023-05-09T00:09:14.497Z,0.00
2023-05-09T00:10:15.382Z,0.00
2023-05-09T00:11:16.273Z,0.00
2023-05-09T00:12:17.149Z,0.00
2023-05-09T00:13:18.087Z,0.00
2023-05-09T00:14:18.965Z,0.00
2023-05-09T00:15:19.824Z,0.00
2023-05-09T00:16:20.841Z,0.00
2023-05-09T00:17:21.699Z,0.00
2023-05-09T00:18:22.570Z,0.00
2023-05-09T00:19:23.574Z,0.00
2023-05-09T00:20:24.413Z,0.00
2023-05-09T00:21:25.312Z,0.00
2023-05-09T00:22:26.183Z,0.00
2023-05-09T00:23:27.057Z,0.00
2023-05-09T00:24:27.949Z,0.00
2023-05-09T00:25:28.843Z,0.00
2023-05-09T00:26:29.722Z,0.00
2023-05-09T00:27:30.670Z,0.00
2023-05-09T00:28:31.537Z,0.00
2023-05-09T00:29:32.428Z,0.00
2023-05-09T00:30:33.309Z,0.00
2023-05-09T00:31:34.206Z,0.00
2023-05-09T00:32:35.098Z,0.00
2023-05-09T00:33:35.980Z,0.00
2023-05-09T00:34:36.972Z,0.00
2023-05-09T00:35:37.790Z,0.00
2023-05-09T00:36:38.673Z,0.00
2023-05-09T00:37:39.570Z,0.00
2023-05-09T00:38:40.445Z,0.00
2023-05-09T00:39:41.352Z,0.00
2023-05-09T00:40:42.241Z,0.00
2023-05-09T00:41:43.106Z,0.00
2023-05-09T00:42:43.990Z,0.00
2023-05-09T00:43:44.882Z,0.00
2023-05-09T00:44:45.760Z,0.00
2023-05-09T00:45:46.656Z,0.00
2023-05-09T00:46:47.522Z,0.00
2023-05-09T00:47:48.479Z,0.00
2023-05-09T00:48:49.323Z,0.00
2023-05-09T00:49:50.317Z,0.00
2023-05-09T00:50:51.150Z,0.00
2023-05-09T00:51:52.023Z,0.00
2023-05-09T00:52:52.918Z,0.00
2023-05-09T00:53:53.796Z,0.00
2023-05-09T00:54:54.701Z,0.00
2023-05-09T00:55:55.569Z,0.00
2023-05-09T00:56:56.439Z,0.00
2023-05-09T00:57:57.331Z,0.00
2023-05-09T00:58:58.237Z,0.00
2023-05-09T00:59:59.108Z,0.00
2023-05-09T01:01:00.014Z,0.00
2023-05-09T01:02:00.889Z,0.00
2023-05-09T01:03:01.835Z,0.00
2023-05-09T01:04:02.684Z,0.00
2023-05-09T01:05:03.677Z,0.00
2023-05-09T01:06:04.493Z,0.00
2023-05-09T01:07:05.382Z,0.00
2023-05-09T01:08:06.310Z,0.00
2023-05-09T01:09:07.158Z,0.00
2023-05-09T01:10:08.030Z,0.00
2023-05-09T01:11:08.923Z,0.00
2023-05-09T01:12:09.801Z,0.00
2023-05-09T01:13:10.755Z,0.00
2023-05-09T01:14:11.588Z,0.00
2023-05-09T01:15:12.741Z,0.00
2023-05-09T01:16:13.264Z,0.00
2023-05-09T01:17:14.129Z,0.00
2023-05-09T01:18:15.091Z,0.00
2023-05-09T01:19:15.929Z,0.00
2023-05-09T01:20:16.919Z,0.00
2023-05-09T01:21:17.759Z,0.00
2023-05-09T01:22:18.656Z,0.00
2023-05-09T01:23:19.506Z,0.00
2023-05-09T01:24:20.392Z,0.00
2023-05-09T01:25:21.272Z,0.00
2023-05-09T01:26:22.165Z,0.00
2023-05-09T01:27:23.044Z,0.00
2023-05-09T01:28:23.962Z,0.00
2023-05-09T01:29:24.807Z,0.00
2023-05-09T01:30:25.698Z,0.00
2023-05-09T01:31:26.636Z,0.00
2023-05-09T01:32:27.524Z,0.00
2023-05-09T01:33:28.398Z,0.00
2023-05-09T01:34:29.269Z,0.00
2023-05-09T01:35:30.288Z,0.00
2023-05-09T01:36:31.112Z,0.00
2023-05-09T01:37:32.008Z,0.00
2023-05-09T01:38:32.892Z,0.00
2023-05-09T01:39:33.765Z,0.00
2023-05-09T01:40:34.650Z,0.00
2023-05-09T01:41:35.553Z,0.00
2023-05-09T01:42:36.422Z,0.00
2023-05-09T01:43:37.366Z,0.00
2023-05-09T01:44:38.190Z,0.00
2023-05-09T01:45:39.092Z,0.00
2023-05-09T01:46:40.014Z,0.00
2023-05-09T01:47:40.874Z,0.00
2023-05-09T01:48:41.733Z,0.00
2023-05-09T01:49:42.624Z,0.00
2023-05-09T01:50:43.630Z,0.00
2023-05-09T01:51:44.442Z,0.00
2023-05-09T01:52:45.324Z,0.00
2023-05-09T01:53:46.213Z,0.00
2023-05-09T01:54:47.127Z,0.00
2023-05-09T01:55:47.989Z,0.00
2023-05-09T01:56:48.873Z,0.00
2023-05-09T01:57:49.754Z,0.00
2023-05-09T01:58:50.638Z,0.00
2023-05-09T01:59:51.524Z,0.00
2023-05-09T02:00:52.455Z,0.00
2023-05-09T02:01:53.323Z,0.00
2023-05-09T02:02:54.263Z,0.00
2023-05-09T02:03:54.730Z,0.00
2023-05-09T02:04:55.578Z,0.00
2023-05-09T02:05:56.571Z,0.00
2023-05-09T02:06:57.058Z,0.00
2023-05-09T02:07:57.914Z,0.00
2023-05-09T02:08:58.799Z,0.00
2023-05-09T02:09:59.684Z,0.00
2023-05-09T02:11:00.642Z,0.00
2023-05-09T02:12:01.497Z,0.00
2023-05-09T02:13:02.450Z,0.00
2023-05-09T02:14:03.338Z,0.00
2023-05-09T02:15:04.208Z,0.00
2023-05-09T02:16:05.084Z,0.00
2023-05-09T02:17:06.078Z,0.00
2023-05-09T02:18:06.514Z,0.00
2023-05-09T02:19:07.388Z,0.00
2023-05-09T02:20:08.273Z,0.00
2023-05-09T02:21:09.308Z,0.00
2023-05-09T02:22:09.812Z,0.00
2023-05-09T02:23:10.671Z,0.00
2023-05-09T02:24:11.554Z,0.00
2023-05-09T02:25:12.598Z,0.00
2023-05-09T02:26:13.010Z,0.00
2023-05-09T02:27:13.907Z,0.00
2023-05-09T02:28:14.807Z,0.00
2023-05-09T02:29:15.671Z,0.00
2023-05-09T02:30:16.555Z,0.00
2023-05-09T02:31:17.443Z,0.00
2023-05-09T02:32:18.351Z,0.00
2023-05-09T02:33:19.218Z,0.00
2023-05-09T02:34:20.116Z,0.00
2023-05-09T02:35:20.981Z,0.00
2023-05-09T02:36:21.982Z,0.00
2023-05-09T02:37:22.799Z,0.00
2023-05-09T02:38:23.683Z,0.00
2023-05-09T02:39:24.555Z,0.00
2023-05-09T02:40:25.452Z,0.00
2023-05-09T02:41:26.331Z,0.00
2023-05-09T02:42:27.222Z,0.00
2023-05-09T02:43:28.098Z,0.00
2023-05-09T02:44:28.981Z,0.00
2023-05-09T02:45:29.868Z,0.00
2023-05-09T02:46:30.787Z,0.00
2023-05-09T02:47:31.685Z,0.00
2023-05-09T02:48:32.524Z,0.00
2023-05-09T02:49:33.404Z,0.00
2023-05-09T02:50:34.298Z,0.00
2023-05-09T02:51:35.300Z,0.00
2023-05-09T02:52:36.123Z,0.00
2023-05-09T02:53:37.007Z,0.00
2023-05-09T02:54:37.881Z,0.00
2023-05-09T02:55:38.773Z,0.00
2023-05-09T02:56:39.687Z,0.00
2023-05-09T02:57:40.533Z,0.00
2023-05-09T02:58:41.426Z,0.00
2023-05-09T02:59:42.328Z,0.00
2023-05-09T03:00:43.205Z,0.00
2023-05-09T03:01:44.120Z,0.00
2023-05-09T03:02:45.030Z,0.00
2023-05-09T03:03:46.028Z,0.00
2023-05-09T03:04:46.469Z,0.00
2023-05-09T03:05:47.336Z,0.00
2023-05-09T03:06:48.338Z,0.00
2023-05-09T03:07:49.156Z,0.00
2023-05-09T03:08:50.049Z,0.00
2023-05-09T03:09:50.928Z,0.00
2023-05-09T03:10:51.810Z,0.00
2023-05-09T03:11:52.728Z,0.00
2023-05-09T03:12:53.608Z,0.00
2023-05-09T03:13:54.479Z,0.00
2023-05-09T03:14:55.370Z,0.00
2023-05-09T03:15:56.281Z,0.00
2023-05-09T03:16:57.139Z,0.00
2023-05-09T03:17:58.061Z,0.00
2023-05-09T03:18:58.938Z,0.00
2023-05-09T03:20:02.371Z,0.00
2023-05-09T03:21:00.807Z,0.00
2023-05-09T03:22:01.812Z,0.00
2023-05-09T03:23:02.637Z,0.00
2023-05-09T03:24:03.562Z,0.00
2023-05-09T03:25:04.485Z,1.00
2023-05-09T03:26:05.342Z,0.00
2023-05-09T03:27:06.247Z,0.00
2023-05-09T03:28:07.105Z,0.00
2023-05-09T03:29:07.938Z,1.00
2023-05-09T03:30:08.787Z,1.00
2023-05-09T03:31:09.658Z,0.00
2023-05-09T03:32:10.534Z,0.00
2023-05-09T03:33:11.461Z,2.00
2023-05-09T03:34:12.279Z,1.00
2023-05-09T03:35:13.373Z,1.00
2023-05-09T03:36:13.872Z,1.00
2023-05-09T03:37:14.875Z,0.00
2023-05-09T03:38:15.667Z,2.00
2023-05-09T03:39:16.494Z,1.00
2023-05-09T03:40:17.314Z,1.00
2023-05-09T03:41:18.137Z,1.00
2023-05-09T03:42:19.001Z,3.00
2023-05-09T03:43:19.814Z,3.00
2023-05-09T03:44:20.639Z,5.00
2023-05-09T03:45:21.488Z,3.00
2023-05-09T03:46:22.327Z,5.00
2023-05-09T03:47:23.140Z,7.00
2023-05-09T03:48:23.999Z,6.00
2023-05-09T03:49:24.794Z,6.00
2023-05-09T03:50:25.624Z,7.00
2023-05-09T03:51:26.451Z,11.00
2023-05-09T03:52:27.509Z,11.00
2023-05-09T03:53:27.785Z,8.00
2023-05-09T03:54:28.649Z,10.00
2023-05-09T03:55:29.440Z,13.00
2023-05-09T03:56:30.277Z,9.00
2023-05-09T03:57:31.113Z,12.00
2023-05-09T03:58:31.952Z,13.00
2023-05-09T03:59:32.769Z,19.00
2023-05-09T04:00:33.645Z,18.00
2023-05-09T04:01:34.479Z,17.00
2023-05-09T04:02:35.413Z,23.00
2023-05-09T04:03:36.310Z,24.00
2023-05-09T04:04:37.130Z,25.00
2023-05-09T04:05:37.949Z,32.00
2023-05-09T04:06:38.809Z,37.00
2023-05-09T04:07:39.733Z,37.00
2023-05-09T04:08:40.492Z,36.00
2023-05-09T04:09:41.319Z,34.00
2023-05-09T04:10:42.175Z,38.00
2023-05-09T04:11:42.983Z,39.00
2023-05-09T04:12:43.906Z,40.00
2023-05-09T04:13:44.678Z,42.00
2023-05-09T04:14:48.128Z,40.00
2023-05-09T04:15:46.235Z,42.00
2023-05-09T04:16:47.087Z,52.00
2023-05-09T04:17:47.923Z,57.00
2023-05-09T04:18:48.762Z,53.00
2023-05-09T04:19:49.554Z,60.00
2023-05-09T04:20:50.390Z,57.00
2023-05-09T04:21:51.221Z,54.00
2023-05-09T04:22:52.104Z,54.00
2023-05-09T04:23:52.872Z,49.00
2023-05-09T04:24:53.749Z,49.00
2023-05-09T04:25:54.651Z,54.00
2023-05-09T04:26:55.457Z,50.00
2023-05-09T04:27:56.283Z,50.00
2023-05-09T04:28:57.126Z,51.00
2023-05-09T04:29:57.955Z,53.00
2023-05-09T04:30:58.881Z,54.00
2023-05-09T04:31:59.819Z,59.00
2023-05-09T04:33:00.246Z,66.00
2023-05-09T04:34:01.054Z,64.00
2023-05-09T04:35:01.886Z,64.00
2023-05-09T04:36:02.719Z,80.00
2023-05-09T04:37:03.558Z,78.00
2023-05-09T04:38:04.490Z,78.00
2023-05-09T04:39:05.269Z,85.00
2023-05-09T04:40:06.084Z,69.00
2023-05-09T04:41:06.917Z,63.00
2023-05-09T04:42:07.741Z,64.00
2023-05-09T04:43:08.595Z,67.00
2023-05-09T04:44:09.420Z,63.00
2023-05-09T04:45:10.252Z,62.00
2023-05-09T04:46:11.133Z,64.00
2023-05-09T04:47:11.915Z,69.00
2023-05-09T04:48:12.755Z,68.00
2023-05-09T04:49:13.613Z,69.00
2023-05-09T04:50:14.438Z,71.00
2023-05-09T04:51:15.248Z,79.00
2023-05-09T04:52:16.094Z,81.00
2023-05-09T04:53:17.046Z,77.00
2023-05-09T04:54:17.811Z,75.00
2023-05-09T04:55:18.658Z,84.00
2023-05-09T04:56:19.478Z,84.00
2023-05-09T04:57:20.303Z,88.00
2023-05-09T04:58:21.141Z,102.00
2023-05-09T04:59:21.984Z,95.00
2023-05-09T05:00:22.816Z,104.00
2023-05-09T05:01:23.658Z,103.00
2023-05-09T05:02:24.479Z,97.00
2023-05-09T05:03:25.321Z,99.00
2023-05-09T05:04:26.162Z,100.00
2023-05-09T05:05:27.358Z,119.00
2023-05-09T05:06:27.952Z,120.00
2023-05-09T05:07:28.790Z,123.00
2023-05-09T05:08:29.732Z,123.00
2023-05-09T05:09:30.510Z,124.00
2023-05-09T05:10:31.344Z,120.00
2023-05-09T05:11:32.169Z,135.00
2023-05-09T05:12:32.996Z,127.00
2023-05-09T05:13:33.820Z,116.00
2023-05-09T05:14:34.661Z,137.00
2023-05-09T05:15:35.479Z,130.00
2023-05-09T05:16:36.389Z,108.00
2023-05-09T05:17:37.253Z,116.00
2023-05-09T05:18:38.043Z,116.00
2023-05-09T05:19:38.857Z,110.00
2023-05-09T05:20:39.679Z,122.00
2023-05-09T05:21:40.521Z,121.00
2023-05-09T05:22:41.348Z,131.00
2023-05-09T05:23:42.370Z,138.00
2023-05-09T05:24:43.145Z,124.00
2023-05-09T05:25:43.999Z,149.00
2023-05-09T05:26:44.838Z,168.00
2023-05-09T05:27:45.663Z,153.00
2023-05-09T05:28:46.471Z,154.00
2023-05-09T05:29:47.329Z,195.00
2023-05-09T05:30:48.141Z,202.00
2023-05-09T05:31:49.019Z,183.00
2023-05-09T05:32:49.859Z,210.00
2023-05-09T05:33:50.692Z,187.00
2023-05-09T05:34:51.508Z,228.00
2023-05-09T05:35:52.348Z,292.00
2023-05-09T05:36:53.188Z,295.00
2023-05-09T05:37:54.022Z,332.00
2023-05-09T05:38:54.953Z,347.00
2023-05-09T05:39:55.726Z,272.00
2023-05-09T05:40:56.546Z,354.00
2023-05-09T05:41:57.387Z,296.00
2023-05-09T05:42:58.201Z,207.00
2023-05-09T05:43:59.020Z,300.00
2023-05-09T05:44:59.861Z,372.00
2023-05-09T05:46:00.700Z,388.00
2023-05-09T05:47:01.504Z,399.00
2023-05-09T05:48:02.357Z,355.00
2023-05-09T05:49:03.159Z,379.00
2023-05-09T05:50:04.002Z,447.00
2023-05-09T05:51:04.824Z,438.00
2023-05-09T05:52:05.648Z,392.00
2023-05-09T05:53:06.497Z,454.00
2023-05-09T05:54:07.648Z,493.00
2023-05-09T05:55:07.910Z,493.00
2023-05-09T05:56:08.731Z,489.00
2023-05-09T05:57:09.561Z,466.00
2023-05-09T05:58:10.398Z,493.00
2023-05-09T05:59:13.194Z,493.00
2023-05-09T06:00:11.945Z,491.00
2023-05-09T06:01:12.723Z,551.00
2023-05-09T06:02:13.577Z,565.00
2023-05-09T06:03:14.624Z,610.00
2023-05-09T06:04:15.093Z,651.00
2023-05-09T06:05:16.126Z,684.00
2023-05-09T06:06:16.726Z,702.00
2023-05-09T06:07:17.533Z,745.00
2023-05-09T06:08:18.398Z,791.00
2023-05-09T06:09:19.330Z,831.00
2023-05-09T06:10:20.108Z,865.00
2023-05-09T06:11:20.935Z,876.00
2023-05-09T06:12:21.770Z,851.00
2023-05-09T06:13:22.720Z,837.00
2023-05-09T06:14:23.100Z,909.00
2023-05-09T06:15:23.927Z,958.00
2023-05-09T06:16:24.810Z,1022.00
2023-05-09T06:17:25.621Z,1087.00
2023-05-09T06:18:26.452Z,1153.00
2023-05-09T06:19:27.270Z,1194.00
2023-05-09T06:20:28.137Z,1206.00
2023-05-09T06:21:28.949Z,1209.00
2023-05-09T06:22:29.783Z,1207.00
2023-05-09T06:23:30.611Z,1190.00
2023-05-09T06:24:35.583Z,1197.00
2023-05-09T06:25:32.301Z,1211.00
2023-05-09T06:26:33.133Z,1288.00
2023-05-09T06:27:33.974Z,1296.00
2023-05-09T06:28:34.789Z,1477.00
2023-05-09T06:29:35.617Z,1564.00
2023-05-09T06:30:36.464Z,1475.00
2023-05-09T06:31:37.361Z,1408.00
2023-05-09T06:32:38.269Z,1326.00
2023-05-09T06:33:39.050Z,1088.00
2023-05-09T06:34:39.871Z,1593.00
2023-05-09T06:35:40.701Z,1569.00
2023-05-09T06:36:41.544Z,1342.00
2023-05-09T06:37:42.364Z,1168.00
2023-05-09T06:38:43.182Z,1258.00
2023-05-09T06:39:44.029Z,1298.00
2023-05-09T06:40:44.842Z,1181.00
2023-05-09T06:41:45.672Z,1387.00
2023-05-09T06:42:46.582Z,1242.00
2023-05-09T06:43:48.052Z,1159.00
2023-05-09T06:44:48.395Z,1713.00
2023-05-09T06:45:49.254Z,2231.00
2023-05-09T06:46:50.037Z,1611.00
2023-05-09T06:47:50.934Z,1253.00
2023-05-09T06:48:51.774Z,484.00
2023-05-09T06:49:52.583Z,1755.00
2023-05-09T06:50:53.423Z,1798.00
2023-05-09T06:51:54.268Z,1676.00
2023-05-09T06:52:55.101Z,2393.00
2023-05-09T06:53:55.581Z,2113.00
2023-05-09T06:54:56.434Z,426.00
2023-05-09T06:55:57.266Z,1566.00
2023-05-09T06:56:58.095Z,2892.00
2023-05-09T06:57:58.920Z,1364.00
2023-05-09T06:58:59.751Z,1360.00
2023-05-09T07:00:00.578Z,1366.00
2023-05-09T07:01:01.412Z,1343.00
2023-05-09T07:02:02.396Z,1386.00
2023-05-09T07:03:03.263Z,1348.00
2023-05-09T07:04:04.063Z,1401.00
2023-05-09T07:05:04.943Z,1350.00
2023-05-09T07:06:05.743Z,1668.00
2023-05-09T07:07:06.566Z,1387.00
2023-05-09T07:08:07.396Z,1943.00
2023-05-09T07:09:08.261Z,1374.00
2023-05-09T07:10:11.865Z,2827.00
2023-05-09T07:11:09.643Z,2008.00
2023-05-09T07:12:10.487Z,1832.00
2023-05-09T07:13:11.318Z,4061.00
2023-05-09T07:14:12.138Z,5800.00
2023-05-09T07:15:13.124Z,5670.00
2023-05-09T07:16:13.525Z,6609.00
2023-05-09T07:17:22.979Z,6773.00
2023-05-09T07:18:16.072Z,6818.00
2023-05-09T07:19:15.896Z,6952.00
2023-05-09T07:20:16.729Z,6985.00
2023-05-09T07:21:17.577Z,5165.00
2023-05-09T07:22:18.434Z,4245.00
2023-05-09T07:23:19.221Z,12986.00
2023-05-09T07:24:20.052Z,30138.00
2023-05-09T07:25:21.113Z,75776.00
2023-05-09T07:26:21.395Z,75790.00
2023-05-09T07:27:22.222Z,75675.00
2023-05-09T07:28:23.044Z,77764.00
2023-05-09T07:29:23.873Z,77996.00
2023-05-09T07:30:24.702Z,76448.00
2023-05-09T07:31:25.633Z,74504.00
2023-05-09T07:32:26.452Z,69545.00
2023-05-09T07:33:27.281Z,35186.00
2023-05-09T07:34:28.107Z,29001.00
2023-05-09T07:35:28.925Z,24421.00
2023-05-09T07:36:29.753Z,24901.00
2023-05-09T07:37:30.586Z,27139.00
2023-05-09T07:38:31.411Z,29195.00
2023-05-09T07:39:32.243Z,74939.00
2023-05-09T07:40:33.199Z,73417.00
2023-05-09T07:41:33.986Z,38137.00
2023-05-09T07:42:34.814Z,33949.00
2023-05-09T07:43:35.653Z,29183.00
2023-05-09T07:44:36.485Z,75910.00
2023-05-09T07:45:37.337Z,76096.00
2023-05-09T07:46:38.147Z,75231.00
2023-05-09T07:47:39.030Z,74590.00
2023-05-09T07:48:39.825Z,75005.00
2023-05-09T07:49:40.822Z,77528.00
2023-05-09T07:50:41.656Z,76662.00
2023-05-09T07:51:42.472Z,74459.00
2023-05-09T07:52:43.441Z,74513.00
2023-05-09T07:53:44.204Z,74517.00
2023-05-09T07:54:45.082Z,75406.00
2023-05-09T07:55:46.007Z,77301.00
2023-05-09T07:56:46.787Z,75554.00
2023-05-09T07:57:47.610Z,74037.00
2023-05-09T07:58:48.447Z,72540.00
2023-05-09T07:59:49.314Z,73381.00
2023-05-09T08:00:50.113Z,72499.00
2023-05-09T08:01:50.979Z,32249.00
2023-05-09T08:02:51.900Z,29570.00
2023-05-09T08:03:52.399Z,34183.00
2023-05-09T08:04:53.261Z,77840.00
2023-05-09T08:05:54.101Z,69050.00
2023-05-09T08:06:54.912Z,28007.00
2023-05-09T08:07:55.740Z,5586.00
2023-05-09T08:08:56.569Z,1452.00
2023-05-09T08:09:57.421Z,1233.00
2023-05-09T08:10:58.354Z,1128.00
2023-05-09T08:11:59.179Z,1044.00
2023-05-09T08:13:00.050Z,1001.00
2023-05-09T08:14:00.841Z,949.00
2023-05-09T08:15:01.718Z,922.00
2023-05-09T08:16:02.606Z,909.00
2023-05-09T08:17:03.471Z,886.00
2023-05-09T08:18:04.291Z,843.00
2023-05-09T08:19:05.093Z,823.00
2023-05-09T08:20:05.921Z,796.00
2023-05-09T08:21:06.769Z,783.00
2023-05-09T08:22:07.577Z,774.00
2023-05-09T08:23:08.414Z,766.00
2023-05-09T08:24:09.244Z,757.00
2023-05-09T08:25:10.078Z,765.00
2023-05-09T08:26:11.014Z,755.00
2023-05-09T08:27:11.767Z,747.00
2023-05-09T08:28:12.605Z,743.00
2023-05-09T08:29:13.468Z,747.00
2023-05-09T08:30:14.299Z,739.00
2023-05-09T08:31:15.136Z,750.00
2023-05-09T08:32:15.918Z,746.00
2023-05-09T08:33:16.756Z,739.00
2023-05-09T08:34:17.574Z,732.00
2023-05-09T08:35:18.392Z,721.00
2023-05-09T08:36:19.219Z,709.00
2023-05-09T08:37:20.058Z,723.00
2023-05-09T08:38:20.893Z,710.00
2023-05-09T08:39:21.767Z,702.00
2023-05-09T08:40:22.573Z,679.00
2023-05-09T08:41:23.497Z,677.00
2023-05-09T08:42:26.209Z,667.00
2023-05-09T08:43:24.828Z,663.00
2023-05-09T08:44:25.642Z,653.00
2023-05-09T08:45:26.468Z,660.00
2023-05-09T08:46:27.349Z,650.00
2023-05-09T08:47:28.213Z,654.00
2023-05-09T08:48:29.030Z,664.00
2023-05-09T08:49:29.865Z,689.00
2023-05-09T08:50:30.698Z,696.00
2023-05-09T08:51:31.523Z,682.00
2023-05-09T08:52:32.350Z,697.00
2023-05-09T08:53:33.189Z,702.00
2023-05-09T08:54:34.011Z,700.00
2023-05-09T08:55:34.841Z,701.00
2023-05-09T08:56:35.792Z,698.00
2023-05-09T08:57:36.550Z,717.00
2023-05-09T08:58:37.380Z,704.00
2023-05-09T08:59:38.209Z,667.00
2023-05-09T09:00:39.031Z,671.00
2023-05-09T09:01:39.916Z,692.00
2023-05-09T09:02:40.793Z,894.00
2023-05-09T09:03:41.566Z,695.00
2023-05-09T09:04:42.408Z,575.00
2023-05-09T09:05:43.307Z,755.00
2023-05-09T09:06:44.102Z,813.00
2023-05-09T09:07:44.933Z,861.00
2023-05-09T09:08:45.755Z,820.00
2023-05-09T09:09:46.617Z,808.00
2023-05-09T09:10:47.637Z,744.00
2023-05-09T09:11:48.122Z,796.00
2023-05-09T09:12:50.157Z,812.00
2023-05-09T09:13:49.663Z,750.00
2023-05-09T09:14:50.528Z,739.00
2023-05-09T09:15:51.377Z,719.00
2023-05-09T09:16:52.321Z,786.00
2023-05-09T09:17:52.721Z,859.00
2023-05-09T09:18:53.537Z,851.00
2023-05-09T09:19:54.384Z,741.00
2023-05-09T09:20:55.191Z,682.00
2023-05-09T09:21:56.009Z,672.00
2023-05-09T09:22:56.846Z,665.00
2023-05-09T09:23:57.694Z,665.00
2023-05-09T09:24:58.522Z,654.00
2023-05-09T09:25:59.897Z,665.00
2023-05-09T09:27:00.099Z,680.00
2023-05-09T09:28:00.914Z,685.00
2023-05-09T09:29:01.757Z,695.00
2023-05-09T09:30:02.601Z,717.00
2023-05-09T09:31:03.412Z,709.00
2023-05-09T09:32:04.259Z,721.00
2023-05-09T09:33:05.223Z,657.00
2023-05-09T09:34:06.010Z,645.00
2023-05-09T09:35:06.922Z,608.00
2023-05-09T09:36:07.708Z,590.00
2023-05-09T09:37:08.545Z,596.00
2023-05-09T09:38:09.397Z,565.00
2023-05-09T09:39:10.213Z,553.00
2023-05-09T09:40:11.040Z,550.00
2023-05-09T09:41:11.865Z,574.00
2023-05-09T09:42:12.730Z,620.00
2023-05-09T09:43:13.527Z,588.00
2023-05-09T09:44:14.370Z,644.00
2023-05-09T09:45:15.186Z,710.00
2023-05-09T09:46:16.031Z,769.00
2023-05-09T09:47:16.827Z,805.00
2023-05-09T09:48:17.667Z,828.00
2023-05-09T09:49:18.478Z,869.00
2023-05-09T09:50:19.362Z,999.00
2023-05-09T09:51:20.293Z,906.00
2023-05-09T09:52:21.121Z,753.00
2023-05-09T09:53:21.953Z,654.00
2023-05-09T09:54:22.782Z,595.00
2023-05-09T09:55:23.613Z,537.00
2023-05-09T09:56:24.450Z,496.00
2023-05-09T09:57:25.301Z,472.00
2023-05-09T09:58:26.111Z,458.00
2023-05-09T09:59:27.058Z,450.00
2023-05-09T10:00:27.856Z,430.00
2023-05-09T10:01:28.711Z,429.00
2023-05-09T10:02:29.549Z,443.00
2023-05-09T10:03:30.390Z,459.00
2023-05-09T10:04:31.176Z,447.00
2023-05-09T10:05:32.014Z,469.00
2023-05-09T10:06:32.865Z,452.00
2023-05-09T10:07:33.683Z,428.00
2023-05-09T10:08:34.537Z,432.00
2023-05-09T10:09:35.364Z,464.00
2023-05-09T10:10:36.169Z,503.00
2023-05-09T10:11:36.998Z,471.00
2023-05-09T10:12:37.949Z,418.00
2023-05-09T10:13:38.794Z,398.00
2023-05-09T10:14:39.595Z,429.00
2023-05-09T10:15:52.279Z,446.00
2023-05-09T10:16:44.075Z,438.00
2023-05-09T10:17:42.035Z,443.00
2023-05-09T10:18:43.297Z,421.00
2023-05-09T10:19:43.346Z,406.00
2023-05-09T10:20:44.182Z,384.00
2023-05-09T10:21:45.028Z,379.00
2023-05-09T10:22:45.876Z,657.00
2023-05-09T10:23:46.664Z,466.00
2023-05-09T10:24:47.494Z,363.00
2023-05-09T10:25:48.341Z,453.00
2023-05-09T10:26:49.169Z,475.00
2023-05-09T10:27:50.098Z,493.00
2023-05-09T10:28:50.852Z,506.00
2023-05-09T10:29:51.725Z,496.00
2023-05-09T10:30:52.528Z,520.00
2023-05-09T10:31:53.489Z,563.00
2023-05-09T10:32:54.296Z,586.00
2023-05-09T10:33:55.114Z,733.00
2023-05-09T10:34:55.955Z,820.00
2023-05-09T10:35:56.772Z,866.00
2023-05-09T10:36:57.601Z,865.00
2023-05-09T10:37:58.424Z,1201.00
2023-05-09T10:38:59.242Z,576.00
2023-05-09T10:40:00.115Z,1062.00
2023-05-09T10:41:00.922Z,890.00
2023-05-09T10:42:01.767Z,681.00
2023-05-09T10:43:02.690Z,726.00
2023-05-09T10:44:03.463Z,719.00
2023-05-09T10:45:04.308Z,751.00
2023-05-09T10:46:05.230Z,790.00
2023-05-09T10:47:06.170Z,984.00
2023-05-09T10:48:07.057Z,617.00
2023-05-09T10:49:07.891Z,749.00
2023-05-09T10:50:08.719Z,704.00
2023-05-09T10:51:09.558Z,647.00
2023-05-09T10:52:10.383Z,655.00
2023-05-09T10:53:11.229Z,667.00
2023-05-09T10:54:12.041Z,653.00
2023-05-09T10:55:13.150Z,673.00
2023-05-09T10:56:13.617Z,714.00
2023-05-09T10:57:14.448Z,717.00
2023-05-09T10:58:15.304Z,642.00
2023-05-09T10:59:16.119Z,579.00
2023-05-09T11:00:16.975Z,512.00
2023-05-09T11:01:17.862Z,427.00
2023-05-09T11:02:18.669Z,797.00
2023-05-09T11:03:19.623Z,368.00
2023-05-09T11:04:20.464Z,601.00
2023-05-09T11:05:21.287Z,367.00
2023-05-09T11:06:22.115Z,500.00
2023-05-09T11:07:22.997Z,1040.00
2023-05-09T11:08:23.802Z,249.00
2023-05-09T11:09:24.625Z,328.00
2023-05-09T11:10:25.481Z,422.00
2023-05-09T11:11:26.316Z,461.00
2023-05-09T11:12:27.160Z,531.00
2023-05-09T11:13:28.155Z,495.00
2023-05-09T11:14:28.933Z,513.00
2023-05-09T11:15:29.759Z,430.00
2023-05-09T11:16:30.643Z,427.00
2023-05-09T11:17:31.463Z,432.00
2023-05-09T11:18:32.261Z,458.00
2023-05-09T11:19:33.085Z,448.00
2023-05-09T11:20:33.918Z,454.00
2023-05-09T11:21:34.765Z,515.00
2023-05-09T11:22:35.580Z,607.00
2023-05-09T11:23:36.406Z,448.00
2023-05-09T11:24:37.236Z,534.00
2023-05-09T11:25:38.067Z,584.00
2023-05-09T11:26:38.898Z,559.00
2023-05-09T11:27:39.734Z,622.00
2023-05-09T11:28:40.683Z,737.00
2023-05-09T11:29:41.452Z,482.00
2023-05-09T11:30:42.295Z,713.00
2023-05-09T11:31:43.147Z,459.00
2023-05-09T11:32:43.962Z,443.00
2023-05-09T11:33:44.785Z,432.00
2023-05-09T11:34:45.612Z,440.00
2023-05-09T11:35:46.456Z,513.00
2023-05-09T11:36:47.291Z,442.00
2023-05-09T11:37:48.202Z,559.00
2023-05-09T11:38:49.072Z,420.00
2023-05-09T11:39:49.933Z,420.00
2023-05-09T11:40:50.750Z,521.00
2023-05-09T11:41:51.608Z,388.00
2023-05-09T11:42:52.403Z,426.00
2023-05-09T11:43:53.352Z,390.00
2023-05-09T11:44:54.155Z,393.00
2023-05-09T11:45:55.071Z,418.00
2023-05-09T11:46:55.858Z,383.00
2023-05-09T11:47:56.747Z,393.00
2023-05-09T11:48:57.531Z,411.00
2023-05-09T11:49:58.367Z,439.00
2023-05-09T11:50:59.205Z,447.00
2023-05-09T11:52:00.029Z,451.00
2023-05-09T11:53:00.856Z,452.00
2023-05-09T11:54:01.677Z,445.00
2023-05-09T11:55:02.517Z,454.00
2023-05-09T11:56:03.349Z,467.00
2023-05-09T11:57:04.176Z,487.00
2023-05-09T11:58:04.996Z,531.00
2023-05-09T11:59:05.969Z,476.00
2023-05-09T12:00:06.741Z,492.00
2023-05-09T12:01:08.463Z,638.00
2023-05-09T12:02:08.333Z,516.00
2023-05-09T12:03:09.243Z,1272.00
2023-05-09T12:04:10.141Z,1084.00
2023-05-09T12:05:10.927Z,367.00
2023-05-09T12:06:11.750Z,1153.00
2023-05-09T12:07:12.595Z,659.00
2023-05-09T12:08:13.425Z,685.00
2023-05-09T12:09:14.267Z,804.00
2023-05-09T12:10:15.150Z,789.00
2023-05-09T12:11:15.925Z,795.00
2023-05-09T12:12:16.758Z,784.00
2023-05-09T12:13:17.622Z,778.00
2023-05-09T12:14:18.576Z,340.00
2023-05-09T12:15:19.816Z,428.00
2023-05-09T12:16:20.380Z,483.00
2023-05-09T12:17:21.228Z,457.00
2023-05-09T12:18:22.035Z,444.00
2023-05-09T12:19:22.869Z,445.00
2023-05-09T12:20:23.692Z,533.00
2023-05-09T12:21:24.519Z,447.00
2023-05-09T12:22:25.370Z,514.00
2023-05-09T12:23:26.196Z,1507.00
2023-05-09T12:24:27.016Z,393.00
2023-05-09T12:25:27.845Z,486.00
2023-05-09T12:26:28.670Z,551.00
2023-05-09T12:27:29.529Z,590.00
2023-05-09T12:28:30.345Z,621.00
2023-05-09T12:29:31.297Z,715.00
2023-05-09T12:30:32.056Z,734.00
2023-05-09T12:31:33.135Z,756.00
2023-05-09T12:32:33.564Z,617.00
2023-05-09T12:33:34.353Z,481.00
2023-05-09T12:34:35.175Z,533.00
2023-05-09T12:35:36.004Z,517.00
2023-05-09T12:36:37.697Z,743.00
2023-05-09T12:37:37.521Z,483.00
2023-05-09T12:38:38.361Z,618.00
2023-05-09T12:39:39.192Z,840.00
2023-05-09T12:40:40.021Z,760.00
2023-05-09T12:41:50.115Z,858.00
2023-05-09T12:42:42.552Z,631.00
2023-05-09T12:43:42.383Z,361.00
2023-05-09T12:44:43.331Z,578.00
2023-05-09T12:45:44.101Z,511.00
2023-05-09T12:46:44.997Z,605.00
2023-05-09T12:47:45.898Z,573.00
2023-05-09T12:48:46.693Z,547.00
2023-05-09T12:49:47.516Z,487.00